createdAt,value
2023-02-25T00:01:39.297Z,94.74
2023-02-25T00:04:06.609Z,94.62
2023-02-25T00:06:33.868Z,94.96
2023-02-25T00:09:01.082Z,95.07
2023-02-25T00:11:28.425Z,94.98
2023-02-25T00:13:55.735Z,95.42
2023-02-25T00:16:24.388Z,94.88
2023-02-25T00:18:58.190Z,94.42
2023-02-25T00:21:27.097Z,94.37
2023-02-25T00:23:54.027Z,94.60
2023-02-25T00:26:22.391Z,94.52
2023-02-25T00:28:49.624Z,94.71
2023-02-25T00:31:20.349Z,94.11
2023-02-25T00:33:48.365Z,93.82
2023-02-25T00:36:21.971Z,93.92
2023-02-25T00:38:54.913Z,94.02
2023-02-25T00:41:26.783Z,94.13
2023-02-25T00:43:59.409Z,94.15
2023-02-25T00:46:27.582Z,94.35
2023-02-25T00:48:54.740Z,94.15
2023-02-25T00:51:25.220Z,94.68
2023-02-25T00:53:53.787Z,94.67
2023-02-25T00:56:20.968Z,94.60
2023-02-25T00:58:50.117Z,94.65
2023-02-25T01:01:29.287Z,94.58
2023-02-25T01:03:57.401Z,94.56
2023-02-25T01:06:26.700Z,94.68
2023-02-25T01:08:54.115Z,94.81
2023-02-25T01:11:27.734Z,94.60
2023-02-25T01:14:10.956Z,94.38
2023-02-25T01:16:38.151Z,94.26
2023-02-25T01:19:09.435Z,93.79
2023-02-25T01:21:39.385Z,93.68
2023-02-25T01:24:15.940Z,93.28
2023-02-25T01:26:45.339Z,93.43
2023-02-25T01:29:16.338Z,93.48
2023-02-25T01:31:45.199Z,93.34
2023-02-25T01:34:17.887Z,93.18
2023-02-25T01:36:45.488Z,92.95
2023-02-25T01:39:14.568Z,93.09
2023-02-25T01:41:41.952Z,92.94
2023-02-25T01:44:33.896Z,93.31
2023-02-25T01:47:04.385Z,92.85
2023-02-25T01:49:46.056Z,92.85
2023-02-25T01:52:18.755Z,92.40
2023-02-25T01:54:48.417Z,92.08
2023-02-25T01:57:17.781Z,91.71
2023-02-25T01:59:47.544Z,91.48
2023-02-25T02:02:20.708Z,91.22
2023-02-25T02:04:52.770Z,91.13
2023-02-25T02:07:21.878Z,90.91
2023-02-25T02:09:58.461Z,90.81
2023-02-25T02:12:38.732Z,90.91
2023-02-25T02:15:09.587Z,90.87
2023-02-25T02:17:48.655Z,90.70
2023-02-25T02:20:26.089Z,91.12
2023-02-25T02:23:03.812Z,91.15
2023-02-25T02:26:08.528Z,91.19
2023-02-25T02:29:14.500Z,91.11
2023-02-25T02:31:59.954Z,91.35
2023-02-25T02:34:48.340Z,91.46
2023-02-25T02:37:25.063Z,91.11
2023-02-25T02:40:00.880Z,91.13
2023-02-25T02:43:09.241Z,91.50
2023-02-25T02:45:47.196Z,91.12
2023-02-25T02:48:24.899Z,91.12
2023-02-25T02:50:57.565Z,91.31
2023-02-25T02:53:31.796Z,90.65
2023-02-25T02:56:03.144Z,90.57
2023-02-25T02:58:53.054Z,90.91
2023-02-25T03:01:27.425Z,90.37
2023-02-25T03:04:02.958Z,90.50
2023-02-25T03:06:43.938Z,90.50
2023-02-25T03:09:17.217Z,90.85
2023-02-25T03:11:44.641Z,90.70
2023-02-25T03:14:13.062Z,91.34
2023-02-25T03:16:51.337Z,91.23
2023-02-25T03:19:23.519Z,91.91
2023-02-25T03:22:08.236Z,91.99
2023-02-25T03:24:49.917Z,92.02
2023-02-25T03:27:34.350Z,92.16
2023-02-25T03:30:15.100Z,92.48
2023-02-25T03:32:48.024Z,92.83
2023-02-25T03:35:19.065Z,92.87
2023-02-25T03:37:51.012Z,93.06
2023-02-25T03:40:20.838Z,93.95
2023-02-25T03:43:21.420Z,93.63
2023-02-25T03:45:49.075Z,93.72
2023-02-25T03:48:17.587Z,93.73
2023-02-25T03:50:50.305Z,94.26
2023-02-25T03:53:17.497Z,93.80
2023-02-25T03:55:59.092Z,93.83
2023-02-25T03:58:26.061Z,93.32
2023-02-25T04:00:56.560Z,93.46
2023-02-25T04:03:25.123Z,93.52
2023-02-25T04:05:52.550Z,93.53
2023-02-25T04:08:19.688Z,93.42
2023-02-25T04:10:48.026Z,93.42
2023-02-25T04:13:20.491Z,93.38
2023-02-25T04:15:49.706Z,93.13
2023-02-25T04:18:17.258Z,93.49
2023-02-25T04:20:45.101Z,93.64
2023-02-25T04:23:15.092Z,93.73
2023-02-25T04:25:42.033Z,93.88
2023-02-25T04:28:10.133Z,93.71
2023-02-25T04:30:37.225Z,94.01
2023-02-25T04:33:04.349Z,93.75
2023-02-25T04:35:31.376Z,93.65
2023-02-25T04:37:58.515Z,93.75
2023-02-25T04:40:25.483Z,93.95
2023-02-25T04:42:52.692Z,93.67
2023-02-25T04:45:26.861Z,93.39
2023-02-25T04:47:58.124Z,93.78
2023-02-25T04:50:26.629Z,93.72
2023-02-25T04:52:53.608Z,94.17
2023-02-25T04:55:20.689Z,94.27
2023-02-25T04:57:47.562Z,94.20
2023-02-25T05:00:20.533Z,94.42
2023-02-25T05:02:48.178Z,94.44
2023-02-25T05:05:15.528Z,94.54
2023-02-25T05:07:42.784Z,94.48
2023-02-25T05:10:12.154Z,94.54
2023-02-25T05:12:39.597Z,94.84
2023-02-25T05:15:08.644Z,95.70
2023-02-25T05:17:36.197Z,95.52
2023-02-25T05:20:07.351Z,95.69
2023-02-25T05:22:34.947Z,95.58
2023-02-25T05:25:01.838Z,95.80
2023-02-25T05:27:30.262Z,95.64
2023-02-25T05:29:57.404Z,95.35
2023-02-25T05:32:24.714Z,95.42
2023-02-25T05:34:51.768Z,94.57
2023-02-25T05:37:19.030Z,94.37
2023-02-25T05:39:45.843Z,93.63
2023-02-25T05:42:12.785Z,93.46
2023-02-25T05:44:39.833Z,93.20
2023-02-25T05:47:07.828Z,93.52
2023-02-25T05:49:34.729Z,93.60
2023-02-25T05:52:01.659Z,93.71
2023-02-25T05:54:28.704Z,93.62
2023-02-25T05:56:55.697Z,94.17
2023-02-25T05:59:22.704Z,93.15
2023-02-25T06:01:49.548Z,92.71
2023-02-25T06:04:16.423Z,92.91
2023-02-25T06:06:43.502Z,91.68
2023-02-25T06:09:10.524Z,91.42
2023-02-25T06:11:37.611Z,91.19
2023-02-25T06:14:04.500Z,90.45
2023-02-25T06:16:32.354Z,90.03
2023-02-25T06:19:01.196Z,89.48
2023-02-25T06:21:28.315Z,89.06
2023-02-25T06:23:55.564Z,88.30
2023-02-25T06:26:23.443Z,87.96
2023-02-25T06:28:50.731Z,88.09
2023-02-25T06:31:19.798Z,87.40
2023-02-25T06:33:46.985Z,87.10
2023-02-25T06:36:14.267Z,86.62
2023-02-25T06:38:43.204Z,85.95
2023-02-25T06:41:15.719Z,85.74
2023-02-25T06:43:43.083Z,86.06
2023-02-25T06:46:13.675Z,86.15
2023-02-25T06:48:41.413Z,85.57
2023-02-25T06:51:09.697Z,85.17
2023-02-25T06:53:38.299Z,83.93
2023-02-25T06:56:06.584Z,82.21
2023-02-25T06:58:33.968Z,82.12
2023-02-25T07:01:00.897Z,81.71
2023-02-25T07:03:28.124Z,81.55
2023-02-25T07:05:55.061Z,80.93
2023-02-25T07:08:22.021Z,80.56
2023-02-25T07:10:49.094Z,79.17
2023-02-25T07:13:16.011Z,78.51
2023-02-25T07:15:43.033Z,77.83
2023-02-25T07:18:10.176Z,77.59
2023-02-25T07:20:39.354Z,77.67
2023-02-25T07:23:06.678Z,76.87
2023-02-25T07:25:33.612Z,76.32
2023-02-25T07:28:00.652Z,75.90
2023-02-25T07:30:27.640Z,75.47
2023-02-25T07:32:54.745Z,74.81
2023-02-25T07:35:21.632Z,74.36
2023-02-25T07:37:48.542Z,74.78
2023-02-25T07:40:17.011Z,74.87
2023-02-25T07:42:44.068Z,73.23
2023-02-25T07:45:12.752Z,72.29
2023-02-25T07:47:40.149Z,71.68
2023-02-25T07:50:12.298Z,70.76
2023-02-25T07:52:40.049Z,70.39
2023-02-25T07:55:07.376Z,70.18
2023-02-25T07:57:35.561Z,69.82
2023-02-25T08:00:07.036Z,69.30
2023-02-25T08:02:40.163Z,68.78
2023-02-25T08:05:07.780Z,67.80
2023-02-25T08:07:34.892Z,66.40
2023-02-25T08:10:02.059Z,66.70
2023-02-25T08:12:30.891Z,67.39
2023-02-25T08:15:01.942Z,68.73
2023-02-25T08:17:34.697Z,67.68
2023-02-25T08:20:01.759Z,67.21
2023-02-25T08:22:30.702Z,67.17
2023-02-25T08:24:57.737Z,66.67
2023-02-25T08:27:24.678Z,66.43
2023-02-25T08:29:51.635Z,66.18
2023-02-25T08:32:19.191Z,65.56
2023-02-25T08:34:48.676Z,65.93
2023-02-25T08:37:15.727Z,65.55
2023-02-25T08:39:42.920Z,65.19
2023-02-25T08:42:18.838Z,65.72
2023-02-25T08:44:45.891Z,65.21
2023-02-25T08:47:13.030Z,65.18
2023-02-25T08:49:40.278Z,65.39
2023-02-25T08:52:10.319Z,65.44
2023-02-25T08:54:41.342Z,65.58
2023-02-25T08:57:08.407Z,66.57
2023-02-25T08:59:38.238Z,66.91
2023-02-25T09:02:06.446Z,66.02
2023-02-25T09:04:34.553Z,65.41
2023-02-25T09:07:02.719Z,65.70
2023-02-25T09:09:29.844Z,67.00
2023-02-25T09:11:57.109Z,66.34
2023-02-25T09:14:24.385Z,66.78
2023-02-25T09:16:51.373Z,67.15
2023-02-25T09:19:18.672Z,67.02
2023-02-25T09:21:48.369Z,67.07
2023-02-25T09:24:16.740Z,67.74
2023-02-25T09:26:43.691Z,67.49
2023-02-25T09:29:10.827Z,67.61
2023-02-25T09:31:38.784Z,68.07
2023-02-25T09:34:08.888Z,68.87
2023-02-25T09:36:36.346Z,69.20
2023-02-25T09:39:04.725Z,69.34
2023-02-25T09:41:46.537Z,69.68
2023-02-25T09:44:19.614Z,69.72
2023-02-25T09:46:56.038Z,69.80
2023-02-25T09:49:49.225Z,69.08
2023-02-25T09:52:48.044Z,68.46
2023-02-25T09:55:23.872Z,68.25
2023-02-25T09:58:03.025Z,67.46
2023-02-25T10:00:34.156Z,65.83
2023-02-25T10:03:14.668Z,65.10
2023-02-25T10:06:01.854Z,65.15
2023-02-25T10:08:47.704Z,65.05
2023-02-25T10:11:36.753Z,64.49
2023-02-25T10:14:31.346Z,63.92
2023-02-25T10:17:22.944Z,64.13
2023-02-25T10:20:04.245Z,63.86
2023-02-25T10:22:59.148Z,64.39
2023-02-25T10:25:35.080Z,62.88
2023-02-25T10:28:17.550Z,62.64
2023-02-25T10:30:48.162Z,61.98
2023-02-25T10:33:24.671Z,61.97
2023-02-25T10:36:14.993Z,60.52
2023-02-25T10:38:47.953Z,60.44
2023-02-25T10:41:14.946Z,60.54
2023-02-25T10:43:43.280Z,59.57
2023-02-25T10:46:16.292Z,59.43
2023-02-25T10:48:50.663Z,58.24
2023-02-25T10:51:17.870Z,58.64
2023-02-25T10:54:05.123Z,58.28
2023-02-25T10:56:40.293Z,58.69
2023-02-25T10:59:30.043Z,58.37
2023-02-25T11:01:59.837Z,57.23
2023-02-25T11:04:37.612Z,57.42
2023-02-25T11:07:34.594Z,57.27
2023-02-25T11:10:09.577Z,56.85
2023-02-25T11:12:45.671Z,56.37
2023-02-25T11:15:38.147Z,56.59
2023-02-25T11:18:31.606Z,55.13
2023-02-25T11:21:02.337Z,54.65
2023-02-25T11:23:43.973Z,54.16
2023-02-25T11:26:17.476Z,53.97
2023-02-25T11:28:49.069Z,53.43
2023-02-25T11:31:25.866Z,51.46
2023-02-25T11:34:03.816Z,51.26
2023-02-25T11:36:33.909Z,51.90
2023-02-25T11:39:20.993Z,49.41
2023-02-25T11:41:50.796Z,49.40
2023-02-25T11:44:31.916Z,48.73
2023-02-25T11:47:25.553Z,45.33
2023-02-25T11:50:05.356Z,45.28
2023-02-25T11:52:32.352Z,44.16
2023-02-25T11:55:12.999Z,44.94
2023-02-25T11:58:25.378Z,45.39
2023-02-25T12:01:04.823Z,45.62
2023-02-25T12:03:52.416Z,43.72
2023-02-25T12:06:36.456Z,43.76
2023-02-25T12:09:26.877Z,44.14
2023-02-25T12:12:00.082Z,44.45
2023-02-25T12:14:50.879Z,44.04
2023-02-25T12:17:47.614Z,44.03
2023-02-25T12:20:43.352Z,43.30
2023-02-25T12:23:31.336Z,43.27
2023-02-25T12:25:58.331Z,42.22
2023-02-25T12:28:34.543Z,42.46
2023-02-25T12:31:26.324Z,41.21
2023-02-25T12:34:11.470Z,40.96
2023-02-25T12:37:12.339Z,40.56
2023-02-25T12:40:00.309Z,39.61
2023-02-25T12:42:27.202Z,39.99
2023-02-25T12:44:57.152Z,39.73
2023-02-25T12:47:33.262Z,39.51
2023-02-25T12:50:18.812Z,39.83
2023-02-25T12:53:00.879Z,38.42
2023-02-25T12:56:00.801Z,39.36
2023-02-25T12:58:49.386Z,38.49
2023-02-25T13:01:31.171Z,38.90
2023-02-25T13:03:58.260Z,38.92
2023-02-25T13:06:41.832Z,38.30
2023-02-25T13:09:30.543Z,38.37
2023-02-25T13:12:15.668Z,37.30
2023-02-25T13:15:20.651Z,37.48
2023-02-25T13:17:56.819Z,37.67
2023-02-25T13:20:36.274Z,37.87
2023-02-25T13:23:12.319Z,37.63
2023-02-25T13:26:00.389Z,38.42
2023-02-25T13:28:50.192Z,38.50
2023-02-25T13:31:29.309Z,37.87
2023-02-25T13:34:05.066Z,37.82
2023-02-25T13:36:47.937Z,38.00
2023-02-25T13:39:18.031Z,37.50
2023-02-25T13:42:23.975Z,37.52
2023-02-25T13:45:20.791Z,37.39
2023-02-25T13:48:30.232Z,37.48
2023-02-25T13:51:16.951Z,38.16
2023-02-25T13:54:14.683Z,38.04
2023-02-25T13:57:18.784Z,38.46
2023-02-25T14:00:20.380Z,38.04
2023-02-25T14:03:06.402Z,39.06
2023-02-25T14:05:36.375Z,39.49
2023-02-25T14:08:21.539Z,38.84
2023-02-25T14:11:15.717Z,38.96
2023-02-25T14:13:57.140Z,38.58
2023-02-25T14:16:36.434Z,39.27
2023-02-25T14:19:30.639Z,39.45
2023-02-25T14:22:09.910Z,39.11
2023-02-25T14:24:57.513Z,39.59
2023-02-25T14:27:58.487Z,39.46
2023-02-25T14:30:53.032Z,37.70
2023-02-25T14:33:34.422Z,38.32
2023-02-25T14:36:16.586Z,38.44
2023-02-25T14:39:05.786Z,38.28
2023-02-25T14:41:48.017Z,38.81
2023-02-25T14:44:20.148Z,38.57
2023-02-25T14:47:12.229Z,39.13
2023-02-25T14:50:09.517Z,38.93
2023-02-25T14:53:02.397Z,39.00
2023-02-25T14:55:51.096Z,39.48
2023-02-25T14:59:02.831Z,39.56
2023-02-25T15:01:45.214Z,39.76
2023-02-25T15:04:38.843Z,39.91
2023-02-25T15:07:21.497Z,40.64
2023-02-25T15:10:24.417Z,41.20
2023-02-25T15:13:30.036Z,41.13
2023-02-25T15:16:32.748Z,40.79
2023-02-25T15:19:19.748Z,41.45
2023-02-25T15:21:49.222Z,41.77
2023-02-25T15:24:28.019Z,41.33
2023-02-25T15:26:56.500Z,41.63
2023-02-25T15:29:29.742Z,42.27
2023-02-25T15:32:21.150Z,42.00
2023-02-25T15:34:57.442Z,42.65
2023-02-25T15:37:27.872Z,42.42
2023-02-25T15:40:25.574Z,42.60
2023-02-25T15:42:57.193Z,42.91
2023-02-25T15:45:27.777Z,42.33
2023-02-25T15:48:21.052Z,42.47
2023-02-25T15:50:48.066Z,42.76
2023-02-25T15:53:24.808Z,42.40
2023-02-25T15:56:12.620Z,43.24
2023-02-25T15:58:55.092Z,42.54
2023-02-25T16:01:27.303Z,43.03
2023-02-25T16:03:55.103Z,42.65
2023-02-25T16:06:40.802Z,43.23
2023-02-25T16:09:12.477Z,43.48
2023-02-25T16:11:43.566Z,43.47
2023-02-25T16:14:25.206Z,43.52
2023-02-25T16:17:15.259Z,43.43
2023-02-25T16:19:43.710Z,42.45
2023-02-25T16:22:21.429Z,42.73
2023-02-25T16:24:54.718Z,42.81
2023-02-25T16:27:49.322Z,42.89
2023-02-25T16:30:22.869Z,43.12
2023-02-25T16:32:58.872Z,43.73
2023-02-25T16:35:28.763Z,43.21
2023-02-25T16:41:12.893Z,42.90
2023-02-25T16:43:45.772Z,43.15
2023-02-25T16:46:21.733Z,42.98
2023-02-25T16:48:54.773Z,42.70
2023-02-25T16:51:33.913Z,43.53
2023-02-25T16:54:06.667Z,43.06
2023-02-25T16:56:34.349Z,43.35
2023-02-25T16:59:14.887Z,43.27
2023-02-25T17:02:06.024Z,43.25
2023-02-25T17:04:36.178Z,43.90
2023-02-25T17:07:17.986Z,43.26
2023-02-25T17:10:02.291Z,43.62
2023-02-25T17:12:35.776Z,43.81
2023-02-25T17:15:09.599Z,44.01
2023-02-25T17:17:39.952Z,44.18
2023-02-25T17:20:23.414Z,44.87
2023-02-25T17:22:51.936Z,44.45
2023-02-25T17:25:20.652Z,45.04
2023-02-25T17:27:50.300Z,44.94
2023-02-25T17:30:34.445Z,44.87
2023-02-25T17:33:18.451Z,44.30
2023-02-25T17:35:48.151Z,44.55
2023-02-25T17:38:19.848Z,44.88
2023-02-25T17:40:47.751Z,44.98
2023-02-25T17:43:16.023Z,46.16
2023-02-25T17:45:50.277Z,44.65
2023-02-25T17:48:21.596Z,44.17
2023-02-25T17:51:11.042Z,44.28
2023-02-25T17:53:43.930Z,44.52
2023-02-25T17:56:30.463Z,45.02
2023-02-25T17:59:28.493Z,44.81
2023-02-25T18:02:00.851Z,45.43
2023-02-25T18:04:38.200Z,45.87
2023-02-25T18:07:20.525Z,45.72
2023-02-25T18:09:48.123Z,45.43
2023-02-25T18:12:27.933Z,45.66
2023-02-25T18:14:58.527Z,45.71
2023-02-25T18:17:30.630Z,45.53
2023-02-25T18:20:00.838Z,45.69
2023-02-25T18:22:30.728Z,46.21
2023-02-25T18:25:01.186Z,45.75
2023-02-25T18:27:32.440Z,45.93
2023-02-25T18:30:20.478Z,46.14
2023-02-25T18:32:48.018Z,46.14
2023-02-25T18:35:15.384Z,46.59
2023-02-25T18:37:44.620Z,46.63
2023-02-25T18:40:30.787Z,46.42
2023-02-25T18:42:58.999Z,47.04
2023-02-25T18:45:28.737Z,47.44
2023-02-25T18:47:56.978Z,47.84
2023-02-25T18:50:24.636Z,47.43
2023-02-25T18:52:51.580Z,47.91
2023-02-25T18:55:22.115Z,47.87
2023-02-25T18:57:49.575Z,47.39
2023-02-25T19:00:18.575Z,47.92
2023-02-25T19:02:56.739Z,47.32
2023-02-25T19:05:25.810Z,47.79
2023-02-25T19:07:52.912Z,47.31
2023-02-25T19:10:26.045Z,47.26
2023-02-25T19:13:00.683Z,46.66
2023-02-25T19:15:27.824Z,46.67
2023-02-25T19:17:54.886Z,47.02
2023-02-25T19:20:22.914Z,47.36
2023-02-25T19:22:52.514Z,46.16
2023-02-25T19:25:29.421Z,46.14
2023-02-25T19:27:57.649Z,46.28
2023-02-25T19:30:30.787Z,45.94
2023-02-25T19:33:04.256Z,46.30
2023-02-25T19:35:34.724Z,46.69
2023-02-25T19:38:02.823Z,46.32
2023-02-25T19:40:29.979Z,45.90
2023-02-25T19:42:57.570Z,45.89
2023-02-25T19:45:26.586Z,45.64
2023-02-25T19:47:54.776Z,45.85
2023-02-25T19:50:24.814Z,45.88
2023-02-25T19:52:53.361Z,46.06
2023-02-25T19:55:20.510Z,45.82
2023-02-25T19:57:47.663Z,45.60
2023-02-25T20:00:19.025Z,45.82
2023-02-25T20:02:46.296Z,45.90
2023-02-25T20:05:14.622Z,46.15
2023-02-25T20:07:42.543Z,45.96
2023-02-25T20:10:11.046Z,45.44
2023-02-25T20:12:41.580Z,45.95
2023-02-25T20:15:09.643Z,45.69
2023-02-25T20:17:37.525Z,46.13
2023-02-25T20:20:06.790Z,45.52
2023-02-25T20:22:33.731Z,45.60
2023-02-25T20:25:01.223Z,45.21
2023-02-25T20:27:28.215Z,45.75
2023-02-25T20:29:55.453Z,44.91
2023-02-25T20:32:22.339Z,45.28
2023-02-25T20:34:49.541Z,45.52
2023-02-25T20:37:22.685Z,46.06
2023-02-25T20:39:55.690Z,45.76
2023-02-25T20:42:27.565Z,45.68
2023-02-25T20:44:55.126Z,45.69
2023-02-25T20:47:37.225Z,45.69
2023-02-25T20:50:06.955Z,46.23
2023-02-25T20:52:34.246Z,46.50
2023-02-25T20:55:01.256Z,46.35
2023-02-25T20:57:28.760Z,46.34
2023-02-25T20:59:55.717Z,46.24
2023-02-25T21:02:23.073Z,46.95
2023-02-25T21:04:51.480Z,46.69
2023-02-25T21:07:18.562Z,46.59
2023-02-25T21:09:45.678Z,46.09
2023-02-25T21:12:12.582Z,46.23
2023-02-25T21:14:40.795Z,45.39
2023-02-25T21:17:09.695Z,45.77
2023-02-25T21:19:38.690Z,45.28
2023-02-25T21:22:06.875Z,45.98
2023-02-25T21:24:34.624Z,45.94
2023-02-25T21:27:01.915Z,45.90
2023-02-25T21:29:29.060Z,45.11
2023-02-25T21:31:56.744Z,44.34
2023-02-25T21:34:23.773Z,44.87
2023-02-25T21:36:50.604Z,45.43
2023-02-25T21:39:18.048Z,45.00
2023-02-25T21:41:45.147Z,45.52
2023-02-25T21:44:12.921Z,45.84
2023-02-25T21:46:40.410Z,45.87
2023-02-25T21:49:07.464Z,45.00
2023-02-25T21:51:34.332Z,44.91
2023-02-25T21:54:01.840Z,45.11
2023-02-25T21:56:30.668Z,45.37
2023-02-25T21:58:59.705Z,45.63
2023-02-25T22:01:30.423Z,44.33
2023-02-25T22:03:57.780Z,43.87
2023-02-25T22:06:26.476Z,44.71
2023-02-25T22:08:54.164Z,45.30
2023-02-25T22:11:28.510Z,44.62
2023-02-25T22:13:55.923Z,43.30
2023-02-25T22:16:23.857Z,43.62
2023-02-25T22:18:52.355Z,43.76
2023-02-25T22:21:22.465Z,42.96
2023-02-25T22:23:51.172Z,42.55
2023-02-25T22:26:20.431Z,43.87
2023-02-25T22:28:47.374Z,42.67
2023-02-25T22:31:17.362Z,43.36
2023-02-25T22:33:45.619Z,43.58
2023-02-25T22:36:13.807Z,44.27
2023-02-25T22:38:42.707Z,44.15
2023-02-25T22:41:18.867Z,44.25
2023-02-25T22:43:46.158Z,43.52
2023-02-25T22:46:25.769Z,43.58
2023-02-25T22:48:53.548Z,43.86
2023-02-25T22:51:40.523Z,43.37
2023-02-25T22:54:08.390Z,42.79
2023-02-25T22:56:35.408Z,42.63
2023-02-25T22:59:02.316Z,42.69
2023-02-25T23:01:29.456Z,42.18
2023-02-25T23:03:56.929Z,41.87
2023-02-25T23:06:40.763Z,41.82
2023-02-25T23:09:10.064Z,42.39
2023-02-25T23:11:39.027Z,42.76
2023-02-25T23:14:05.957Z,42.21
2023-02-25T23:16:40.497Z,42.64
2023-02-25T23:19:10.517Z,42.33
2023-02-25T23:21:41.334Z,41.17
2023-02-25T23:24:09.453Z,41.40
2023-02-25T23:26:41.431Z,41.59
2023-02-25T23:29:10.962Z,40.94
2023-02-25T23:31:38.819Z,41.75
2023-02-25T23:34:11.262Z,42.05
2023-02-25T23:36:40.330Z,42.10
2023-02-25T23:39:09.259Z,43.31
2023-02-25T23:41:37.184Z,43.89
2023-02-25T23:44:05.635Z,43.74
2023-02-25T23:46:32.819Z,43.75
2023-02-25T23:49:02.089Z,43.90
2023-02-25T23:51:29.669Z,44.37
2023-02-25T23:53:59.230Z,45.02
2023-02-25T23:56:27.366Z,44.52
2023-02-25T23:58:55.437Z,42.11
